createdAt,value
2019-05-18T00:01:16.185Z,99574.72
2019-05-18T00:03:44.973Z,99580.76
2019-05-18T00:06:13.667Z,99579.23
2019-05-18T00:08:42.364Z,99575.97
2019-05-18T00:11:11.041Z,99574.20
2019-05-18T00:13:39.703Z,99573.40
2019-05-18T00:16:08.535Z,99573.13
2019-05-18T00:18:37.295Z,99574.23
2019-05-18T00:21:05.985Z,99578.59
2019-05-18T00:23:34.665Z,99574.38
2019-05-18T00:26:03.502Z,99572.41
2019-05-18T00:28:32.184Z,99574.06
2019-05-18T00:31:00.897Z,99568.06
2019-05-18T00:33:29.602Z,99568.64
2019-05-18T00:35:58.286Z,99565.92
2019-05-18T00:38:26.985Z,99563.30
2019-05-18T00:40:55.674Z,99560.08
2019-05-18T00:43:24.374Z,99560.91
2019-05-18T00:45:53.073Z,99560.53
2019-05-18T00:48:21.745Z,99555.24
2019-05-18T00:50:50.443Z,99559.84
2019-05-18T00:53:19.100Z,99551.39
2019-05-18T00:55:47.815Z,99555.84
2019-05-18T00:58:16.485Z,99554.39
2019-05-18T01:00:45.159Z,99549.55
2019-05-18T01:03:13.939Z,99552.31
2019-05-18T01:05:42.622Z,99555.57
2019-05-18T01:08:11.287Z,99552.72
2019-05-18T01:10:39.980Z,99550.08
2019-05-18T01:13:08.646Z,99550.00
2019-05-18T01:15:37.320Z,99558.35
2019-05-18T01:18:06.989Z,99558.09
2019-05-18T01:20:37.930Z,99558.83
2019-05-18T01:23:11.802Z,99566.88
2019-05-18T01:25:40.582Z,99562.50
2019-05-18T01:28:09.316Z,99555.70
2019-05-18T01:30:38.096Z,99556.27
2019-05-18T01:33:06.835Z,99556.05
2019-05-18T01:35:35.499Z,99548.23
2019-05-18T01:38:04.333Z,99550.58
2019-05-18T01:40:33.002Z,99551.86
2019-05-18T01:43:01.693Z,99552.91
2019-05-18T01:45:30.361Z,99551.16
2019-05-18T01:48:12.629Z,99546.19
2019-05-18T01:50:29.437Z,99553.39
2019-05-18T01:52:58.248Z,99556.03
2019-05-18T01:55:26.913Z,99554.50
2019-05-18T01:57:55.574Z,99559.77
2019-05-18T02:00:24.610Z,99557.58
2019-05-18T02:02:53.280Z,99556.19
2019-05-18T02:05:21.972Z,99559.22
2019-05-18T02:07:50.830Z,99556.92
2019-05-18T02:10:19.702Z,99556.92
2019-05-18T02:12:48.359Z,99558.50
2019-05-18T02:15:17.295Z,99558.48
2019-05-18T02:17:45.955Z,99561.15
2019-05-18T02:20:14.980Z,99557.72
2019-05-18T02:22:43.650Z,99558.63
2019-05-18T02:25:12.688Z,99554.50
2019-05-18T02:27:41.374Z,99554.45
2019-05-18T02:30:11.204Z,99557.03
2019-05-18T02:32:39.892Z,99555.33
2019-05-18T02:35:09.404Z,99552.02
2019-05-18T02:37:38.099Z,99555.48
2019-05-18T02:40:07.139Z,99556.16
2019-05-18T02:42:35.867Z,99551.87
2019-05-18T02:45:04.846Z,99550.25
2019-05-18T02:47:33.668Z,99553.09
2019-05-18T02:50:02.357Z,99551.20
2019-05-18T02:52:31.037Z,99551.72
2019-05-18T02:54:59.719Z,99550.34
2019-05-18T02:57:28.895Z,99552.07
2019-05-18T02:59:57.645Z,99550.81
2019-05-18T03:02:26.351Z,99549.91
2019-05-18T03:04:55.529Z,99553.08
2019-05-18T03:07:24.201Z,99547.61
2019-05-18T03:09:52.964Z,99545.88
2019-05-18T03:12:21.663Z,99548.81
2019-05-18T03:14:50.501Z,99548.39
2019-05-18T03:17:19.191Z,99542.28
2019-05-18T03:19:47.961Z,99539.27
2019-05-18T03:22:16.630Z,99535.65
2019-05-18T03:24:45.326Z,99540.62
2019-05-18T03:27:14.007Z,99541.55
2019-05-18T03:29:42.707Z,99541.66
2019-05-18T03:32:11.667Z,99543.35
2019-05-18T03:34:40.339Z,99543.54
2019-05-18T03:37:09.027Z,99546.22
2019-05-18T03:39:37.711Z,99543.27
2019-05-18T03:42:06.476Z,99537.27
2019-05-18T03:44:35.157Z,99540.89
2019-05-18T03:47:03.842Z,99545.05
2019-05-18T03:49:32.535Z,99542.35
2019-05-18T03:52:01.233Z,99542.77
2019-05-18T03:54:29.902Z,99546.11
2019-05-18T03:56:58.585Z,99540.59
2019-05-18T03:59:27.297Z,99544.80
2019-05-18T04:01:55.964Z,99546.11
2019-05-18T04:04:24.674Z,99541.76
2019-05-18T04:06:53.407Z,99535.70
2019-05-18T04:09:22.586Z,99539.33
2019-05-18T04:11:51.348Z,99539.20
2019-05-18T04:14:20.008Z,99542.75
2019-05-18T04:16:48.705Z,99544.37
2019-05-18T04:19:17.393Z,99537.45
2019-05-18T04:21:46.098Z,99538.22
2019-05-18T04:24:14.773Z,99531.17
2019-05-18T04:26:43.435Z,99537.30
2019-05-18T04:29:12.431Z,99538.13
2019-05-18T04:31:41.114Z,99540.37
2019-05-18T04:34:09.777Z,99541.08
2019-05-18T04:36:38.484Z,99536.77
2019-05-18T04:39:07.359Z,99534.00
2019-05-18T04:41:36.023Z,99534.53
2019-05-18T04:44:04.722Z,99540.34
2019-05-18T04:46:33.412Z,99542.02
2019-05-18T04:49:02.142Z,99538.45
2019-05-18T04:51:30.807Z,99541.30
2019-05-18T04:53:59.482Z,99541.68
2019-05-18T04:56:28.167Z,99546.23
2019-05-18T04:58:56.829Z,99544.68
2019-05-18T05:01:25.498Z,99543.66
2019-05-18T05:03:54.190Z,99544.08
2019-05-18T05:06:23.134Z,99549.21
2019-05-18T05:08:51.825Z,99551.33
2019-05-18T05:11:20.489Z,99542.75
2019-05-18T05:13:49.151Z,99543.01
2019-05-18T05:16:17.828Z,99543.79
2019-05-18T05:18:46.489Z,99542.44
2019-05-18T05:21:15.178Z,99536.86
2019-05-18T05:23:43.841Z,99531.64
2019-05-18T05:26:12.528Z,99532.32
2019-05-18T05:28:41.210Z,99531.30
2019-05-18T05:31:09.884Z,99529.75
2019-05-18T05:33:38.587Z,99529.02
2019-05-18T05:36:07.642Z,99528.39
2019-05-18T05:38:36.301Z,99523.19
2019-05-18T05:41:04.993Z,99520.33
2019-05-18T05:43:33.738Z,99522.80
2019-05-18T05:46:02.428Z,99526.81
2019-05-18T05:48:31.091Z,99530.36
2019-05-18T05:50:59.788Z,99527.84
2019-05-18T05:53:28.449Z,99522.42
2019-05-18T05:55:57.145Z,99526.81
2019-05-18T05:58:25.845Z,99522.66
2019-05-18T06:00:54.542Z,99527.68
2019-05-18T06:03:23.237Z,99525.74
2019-05-18T06:05:51.898Z,99528.61
2019-05-18T06:08:20.574Z,99526.48
2019-05-18T06:10:49.262Z,99527.07
2019-05-18T06:13:17.928Z,99533.11
2019-05-18T06:15:46.608Z,99534.64
2019-05-18T06:18:15.265Z,99531.17
2019-05-18T06:20:51.611Z,99529.81
2019-05-18T06:23:14.329Z,99528.50
2019-05-18T06:25:43.006Z,99532.41
2019-05-18T06:28:11.666Z,99534.80
2019-05-18T06:30:40.373Z,99532.26
2019-05-18T06:33:09.051Z,99531.38
2019-05-18T06:35:37.708Z,99525.14
2019-05-18T06:38:06.398Z,99528.34
2019-05-18T06:40:35.087Z,99535.95
2019-05-18T06:43:03.771Z,99529.83
2019-05-18T06:45:32.430Z,99537.28
2019-05-18T06:48:01.120Z,99534.72
2019-05-18T06:50:30.659Z,99528.52
2019-05-18T06:52:59.585Z,99526.92
2019-05-18T06:55:28.423Z,99525.55
2019-05-18T06:57:58.443Z,99522.11
2019-05-18T07:00:27.593Z,99524.48
2019-05-18T07:02:56.257Z,99533.11
2019-05-18T07:05:24.934Z,99532.84
2019-05-18T07:07:53.615Z,99524.72
2019-05-18T07:10:22.283Z,99521.95
2019-05-18T07:12:50.993Z,99524.94
2019-05-18T07:15:20.302Z,99522.73
2019-05-18T07:17:48.956Z,99523.77
2019-05-18T07:20:18.408Z,99516.80
2019-05-18T07:22:47.185Z,99520.80
2019-05-18T07:25:17.004Z,99521.11
2019-05-18T07:27:45.687Z,99518.43
2019-05-18T07:30:15.202Z,99517.55
2019-05-18T07:32:43.899Z,99517.61
2019-05-18T07:35:12.956Z,99513.50
2019-05-18T07:37:41.623Z,99512.55
2019-05-18T07:40:11.458Z,99509.53
2019-05-18T07:42:40.164Z,99503.58
2019-05-18T07:45:09.369Z,99507.57
2019-05-18T07:47:38.034Z,99507.80
2019-05-18T07:50:07.375Z,99501.89
2019-05-18T07:52:36.135Z,99497.39
2019-05-18T07:55:05.025Z,99495.45
2019-05-18T07:57:33.714Z,99485.98
2019-05-18T08:00:02.391Z,99487.63
2019-05-18T08:02:31.058Z,99493.69
2019-05-18T08:04:59.742Z,99499.38
2019-05-18T08:07:28.410Z,99498.49
2019-05-18T08:09:57.114Z,99500.67
2019-05-18T08:12:25.809Z,99491.58
2019-05-18T08:14:54.544Z,99496.05
2019-05-18T08:17:23.321Z,99489.69
2019-05-18T08:19:51.989Z,99485.89
2019-05-18T08:22:20.663Z,99491.46
2019-05-18T08:24:49.357Z,99492.16
2019-05-18T08:27:18.011Z,99491.52
2019-05-18T08:29:46.718Z,99483.09
2019-05-18T08:32:15.486Z,99483.09
2019-05-18T08:34:44.156Z,99476.97
2019-05-18T08:37:12.845Z,99472.09
2019-05-18T08:39:41.499Z,99468.76
2019-05-18T08:42:10.171Z,99475.30
2019-05-18T08:44:38.844Z,99473.35
2019-05-18T08:47:07.523Z,99470.86
2019-05-18T08:49:36.179Z,99467.70
2019-05-18T08:52:08.486Z,99466.63
2019-05-18T08:54:35.316Z,99465.18
2019-05-18T08:57:04.055Z,99465.96
2019-05-18T08:59:32.735Z,99466.44
2019-05-18T09:02:01.382Z,99471.23
2019-05-18T09:04:30.538Z,99466.92
2019-05-18T09:06:59.212Z,99469.34
2019-05-18T09:09:27.874Z,99468.13
2019-05-18T09:11:56.547Z,99475.90
2019-05-18T09:14:25.232Z,99466.59
2019-05-18T09:16:53.916Z,99474.24
2019-05-18T09:19:22.568Z,99470.13
2019-05-18T09:21:51.228Z,99469.09
2019-05-18T09:24:19.917Z,99470.84
2019-05-18T09:26:48.566Z,99477.14
2019-05-18T09:29:17.241Z,99460.61
2019-05-18T09:31:45.900Z,99458.14
2019-05-18T09:34:14.583Z,99452.23
2019-05-18T09:36:43.252Z,99451.00
2019-05-18T09:39:11.930Z,99457.75
2019-05-18T09:41:40.585Z,99451.59
2019-05-18T09:44:09.282Z,99445.30
2019-05-18T09:46:37.940Z,99447.77
2019-05-18T09:49:06.591Z,99440.24
2019-05-18T09:51:35.266Z,99443.63
2019-05-18T09:54:04.061Z,99439.56
2019-05-18T09:56:32.743Z,99434.80
2019-05-18T09:59:01.497Z,99440.90
2019-05-18T10:01:30.257Z,99440.43
2019-05-18T10:03:58.922Z,99443.73
2019-05-18T10:06:27.573Z,99436.67
2019-05-18T10:08:56.246Z,99442.72
2019-05-18T10:11:25.024Z,99445.00
2019-05-18T10:13:53.697Z,99440.69
2019-05-18T10:16:22.351Z,99439.84
2019-05-18T10:18:51.019Z,99440.95
2019-05-18T10:21:19.704Z,99435.50
2019-05-18T10:23:48.367Z,99439.77
2019-05-18T10:26:17.042Z,99430.52
2019-05-18T10:28:45.730Z,99435.60
2019-05-18T10:31:14.486Z,99435.86
2019-05-18T10:33:43.155Z,99427.61
2019-05-18T10:36:11.968Z,99426.02
2019-05-18T10:38:40.705Z,99423.85
2019-05-18T10:41:09.352Z,99425.23
2019-05-18T10:43:38.112Z,99419.97
2019-05-18T10:46:06.856Z,99417.73
2019-05-18T10:48:35.509Z,99420.89
2019-05-18T10:51:05.707Z,99425.40
2019-05-18T10:53:34.535Z,99428.55
2019-05-18T10:56:03.207Z,99422.55
2019-05-18T10:58:31.866Z,99421.31
2019-05-18T11:01:00.517Z,99414.55
2019-05-18T11:03:29.187Z,99413.63
2019-05-18T11:05:57.839Z,99409.09
2019-05-18T11:08:26.517Z,99410.16
2019-05-18T11:10:55.200Z,99412.50
2019-05-18T11:13:23.852Z,99404.88
2019-05-18T11:15:52.502Z,99410.77
2019-05-18T11:18:21.176Z,99403.86
2019-05-18T11:20:49.833Z,99405.81
2019-05-18T11:23:18.517Z,99397.50
2019-05-18T11:25:47.192Z,99402.17
2019-05-18T11:28:15.852Z,99395.48
2019-05-18T11:30:44.541Z,99390.78
2019-05-18T11:33:13.342Z,99393.91
2019-05-18T11:35:42.069Z,99385.67
2019-05-18T11:38:10.718Z,99385.03
2019-05-18T11:40:39.394Z,99394.84
2019-05-18T11:43:08.064Z,99389.23
2019-05-18T11:45:36.759Z,99387.88
2019-05-18T11:48:05.506Z,99386.92
2019-05-18T11:50:34.221Z,99382.34
2019-05-18T11:53:02.916Z,99383.12
2019-05-18T11:55:31.565Z,99387.85
2019-05-18T11:58:00.234Z,99380.70
2019-05-18T12:00:29.438Z,99372.52
2019-05-18T12:02:58.121Z,99370.99
2019-05-18T12:05:26.811Z,99370.56
2019-05-18T12:07:55.472Z,99372.02
2019-05-18T12:10:24.220Z,99375.26
2019-05-18T12:12:52.925Z,99371.39
2019-05-18T12:15:22.026Z,99377.63
2019-05-18T12:17:50.758Z,99372.91
2019-05-18T12:20:20.881Z,99380.11
2019-05-18T12:22:49.533Z,99365.91
2019-05-18T12:25:18.360Z,99368.61
2019-05-18T12:27:47.053Z,99360.70
2019-05-18T12:30:17.444Z,99363.56
2019-05-18T12:32:46.119Z,99361.52
2019-05-18T12:35:14.921Z,99360.70
2019-05-18T12:37:43.616Z,99366.09
2019-05-18T12:40:15.857Z,99362.11
2019-05-18T12:42:44.508Z,99363.08
2019-05-18T12:45:13.926Z,99357.31
2019-05-18T12:47:42.580Z,99352.55
2019-05-18T12:50:11.618Z,99353.80
2019-05-18T12:52:40.424Z,99353.39
2019-05-18T12:55:09.935Z,99353.00
2019-05-18T12:57:38.629Z,99355.34
2019-05-18T13:00:07.733Z,99348.97
2019-05-18T13:02:36.391Z,99339.26
2019-05-18T13:05:05.672Z,99342.18
2019-05-18T13:07:34.427Z,99341.61
2019-05-18T13:10:03.165Z,99337.98
2019-05-18T13:12:31.828Z,99340.80
2019-05-18T13:15:00.473Z,99342.66
2019-05-18T13:17:29.147Z,99344.94
2019-05-18T13:19:57.832Z,99336.65
2019-05-18T13:22:26.493Z,99331.91
2019-05-18T13:24:55.138Z,99330.27
2019-05-18T13:27:38.434Z,99327.38
2019-05-18T13:29:54.198Z,99333.38
2019-05-18T13:32:22.851Z,99323.67
2019-05-18T13:34:51.531Z,99326.03
2019-05-18T13:37:20.194Z,99327.19
2019-05-18T13:39:48.874Z,99330.22
2019-05-18T13:42:17.531Z,99327.19
2019-05-18T13:44:46.199Z,99327.95
2019-05-18T13:47:14.859Z,99329.06
2019-05-18T13:49:43.544Z,99330.99
2019-05-18T13:52:12.214Z,99331.77
2019-05-18T13:54:40.881Z,99320.84
2019-05-18T13:57:09.552Z,99325.81
2019-05-18T13:59:38.243Z,99317.92
2019-05-18T14:02:07.174Z,99323.84
2019-05-18T14:04:35.838Z,99313.59
2019-05-18T14:07:04.633Z,99312.47
2019-05-18T14:09:33.316Z,99308.63
2019-05-18T14:12:01.962Z,99305.42
2019-05-18T14:14:30.660Z,99308.45
2019-05-18T14:16:59.306Z,99314.80
2019-05-18T14:19:27.982Z,99313.91
2019-05-18T14:21:56.636Z,99311.03
2019-05-18T14:24:25.317Z,99313.88
2019-05-18T14:26:53.975Z,99313.08
2019-05-18T14:29:22.625Z,99308.61
2019-05-18T14:31:51.305Z,99314.52
2019-05-18T14:34:19.964Z,99319.01
2019-05-18T14:36:48.653Z,99310.36
2019-05-18T14:39:17.395Z,99316.32
2019-05-18T14:41:46.089Z,99320.37
2019-05-18T14:44:14.743Z,99317.19
2019-05-18T14:46:43.412Z,99308.53
2019-05-18T14:49:12.156Z,99294.00
2019-05-18T14:51:40.819Z,99291.25
2019-05-18T14:54:09.575Z,99289.17
2019-05-18T14:56:38.237Z,99293.75
2019-05-18T14:59:06.919Z,99288.55
2019-05-18T15:01:35.601Z,99296.66
2019-05-18T15:04:04.259Z,99295.41
2019-05-18T15:06:32.927Z,99288.30
2019-05-18T15:09:01.605Z,99289.02
2019-05-18T15:11:30.271Z,99284.10
2019-05-18T15:13:58.950Z,99293.14
2019-05-18T15:16:27.598Z,99288.91
2019-05-18T15:18:56.252Z,99294.26
2019-05-18T15:21:25.771Z,99288.20
2019-05-18T15:23:54.438Z,99290.91
2019-05-18T15:26:23.091Z,99286.53
2019-05-18T15:28:51.765Z,99282.21
2019-05-18T15:31:23.712Z,99283.80
2019-05-18T15:33:50.847Z,99282.95
2019-05-18T15:36:19.526Z,99287.00
2019-05-18T15:38:48.214Z,99283.13
2019-05-18T15:41:17.668Z,99283.84
2019-05-18T15:43:46.351Z,99282.37
2019-05-18T15:46:14.993Z,99288.09
2019-05-18T15:48:43.713Z,99274.22
2019-05-18T15:51:12.355Z,99269.75
2019-05-18T15:53:41.009Z,99273.30
2019-05-18T15:56:09.702Z,99268.48
2019-05-18T15:58:38.461Z,99267.05
2019-05-18T16:01:07.270Z,99271.74
2019-05-18T16:03:35.924Z,99267.89
2019-05-18T16:06:06.067Z,99265.20
2019-05-18T16:08:34.796Z,99263.34
2019-05-18T16:11:03.486Z,99271.58
2019-05-18T16:13:32.144Z,99270.45
2019-05-18T16:16:00.927Z,99273.81
2019-05-18T16:18:29.556Z,99265.70
2019-05-18T16:20:58.216Z,99271.28
2019-05-18T16:23:26.875Z,99270.39
2019-05-18T16:25:55.558Z,99266.09
2019-05-18T16:28:24.216Z,99269.81
2019-05-18T16:30:52.938Z,99275.70
2019-05-18T16:33:21.611Z,99274.52
2019-05-18T16:35:50.272Z,99267.80
2019-05-18T16:38:18.962Z,99272.19
2019-05-18T16:40:47.621Z,99271.30
2019-05-18T16:43:16.291Z,99273.56
2019-05-18T16:45:44.949Z,99271.36
2019-05-18T16:48:13.628Z,99275.92
2019-05-18T16:50:42.292Z,99273.88
2019-05-18T16:53:10.971Z,99271.10
2019-05-18T16:55:39.715Z,99277.19
2019-05-18T16:58:08.397Z,99274.12
2019-05-18T17:00:37.074Z,99270.25
2019-05-18T17:03:05.769Z,99272.91
2019-05-18T17:05:34.455Z,99267.92
2019-05-18T17:08:03.126Z,99277.13
2019-05-18T17:10:31.775Z,99288.67
2019-05-18T17:13:00.459Z,99274.34
2019-05-18T17:15:29.142Z,99279.63
2019-05-18T17:17:57.776Z,99284.89
2019-05-18T17:20:26.460Z,99283.11
2019-05-18T17:22:55.150Z,99283.83
2019-05-18T17:25:23.858Z,99286.62
2019-05-18T17:27:52.522Z,99284.48
2019-05-18T17:30:21.722Z,99290.73
2019-05-18T17:32:50.403Z,99298.53
2019-05-18T17:35:19.062Z,99298.52
2019-05-18T17:37:47.720Z,99300.30
2019-05-18T17:40:16.678Z,99305.33
2019-05-18T17:42:45.340Z,99308.57
2019-05-18T17:45:14.163Z,99305.41
2019-05-18T17:47:42.844Z,99304.34
2019-05-18T17:50:12.242Z,99306.77
2019-05-18T17:52:40.904Z,99316.36
2019-05-18T17:55:09.734Z,99317.60
2019-05-18T17:57:38.459Z,99313.83
2019-05-18T18:00:07.540Z,99322.62
2019-05-18T18:02:36.192Z,99322.45
2019-05-18T18:05:05.171Z,99322.35
2019-05-18T18:07:33.844Z,99321.66
2019-05-18T18:10:02.604Z,99323.47
2019-05-18T18:12:31.245Z,99318.58
2019-05-18T18:14:59.909Z,99327.31
2019-05-18T18:17:28.578Z,99326.73
2019-05-18T18:19:57.231Z,99324.97
2019-05-18T18:22:25.889Z,99332.20
2019-05-18T18:24:54.556Z,99334.19
2019-05-18T18:27:25.861Z,99332.68
2019-05-18T18:29:53.827Z,99340.17
2019-05-18T18:32:22.495Z,99337.44
2019-05-18T18:34:51.188Z,99340.66
2019-05-18T18:37:19.853Z,99341.78
2019-05-18T18:39:48.514Z,99349.94
2019-05-18T18:42:17.223Z,99352.20
2019-05-18T18:44:45.872Z,99357.44
2019-05-18T18:47:14.640Z,99358.02
2019-05-18T18:49:43.288Z,99357.25
2019-05-18T18:52:12.011Z,99364.00
2019-05-18T18:54:40.688Z,99369.48
2019-05-18T18:57:09.338Z,99366.34
2019-05-18T18:59:37.987Z,99362.30
2019-05-18T19:02:06.749Z,99369.13
2019-05-18T19:04:35.401Z,99368.99
2019-05-18T19:07:04.121Z,99363.73
2019-05-18T19:09:32.803Z,99364.94
2019-05-18T19:12:01.463Z,99369.55
2019-05-18T19:14:30.683Z,99374.96
2019-05-18T19:16:59.365Z,99377.17
2019-05-18T19:19:28.017Z,99377.23
2019-05-18T19:21:56.692Z,99383.23
2019-05-18T19:24:25.385Z,99388.12
2019-05-18T19:26:54.060Z,99382.30
2019-05-18T19:29:22.690Z,99386.83
2019-05-18T19:31:51.364Z,99385.75
2019-05-18T19:34:20.023Z,99395.64
2019-05-18T19:36:48.717Z,99391.63
2019-05-18T19:39:17.377Z,99395.34
2019-05-18T19:41:46.046Z,99400.70
2019-05-18T19:44:14.722Z,99408.38
2019-05-18T19:46:43.408Z,99416.87
2019-05-18T19:49:12.072Z,99418.09
2019-05-18T19:51:40.759Z,99415.13
2019-05-18T19:54:09.521Z,99418.84
2019-05-18T19:56:41.172Z,99420.64
2019-05-18T19:59:08.590Z,99424.86
2019-05-18T20:01:37.284Z,99428.30
2019-05-18T20:04:06.218Z,99427.95
2019-05-18T20:06:34.869Z,99428.39
2019-05-18T20:09:04.662Z,99425.34
2019-05-18T20:11:33.325Z,99422.08
2019-05-18T20:14:02.086Z,99420.52
2019-05-18T20:16:30.822Z,99424.50
2019-05-18T20:18:59.457Z,99424.76
2019-05-18T20:21:28.237Z,99423.33
2019-05-18T20:23:56.885Z,99428.47
2019-05-18T20:26:25.558Z,99428.96
2019-05-18T20:28:56.627Z,99423.77
2019-05-18T20:31:24.602Z,99429.78
2019-05-18T20:33:53.297Z,99429.86
2019-05-18T20:36:21.960Z,99428.22
2019-05-18T20:38:50.635Z,99431.05
2019-05-18T20:41:19.338Z,99436.17
2019-05-18T20:43:48.007Z,99438.59
2019-05-18T20:46:16.685Z,99434.96
2019-05-18T20:48:45.342Z,99427.84
2019-05-18T20:51:14.017Z,99426.38
2019-05-18T20:53:42.672Z,99435.25
2019-05-18T20:56:11.363Z,99433.16
2019-05-18T20:58:40.899Z,99429.59
2019-05-18T21:01:09.857Z,99434.09
2019-05-18T21:03:38.530Z,99430.44
2019-05-18T21:06:07.458Z,99429.69
2019-05-18T21:08:36.160Z,99432.73
2019-05-18T21:11:04.891Z,99439.80
2019-05-18T21:13:33.549Z,99435.95
2019-05-18T21:16:02.229Z,99440.68
2019-05-18T21:18:30.914Z,99435.83
2019-05-18T21:20:59.577Z,99438.64
2019-05-18T21:23:28.582Z,99437.33
2019-05-18T21:25:57.284Z,99441.47
2019-05-18T21:28:26.138Z,99435.98
2019-05-18T21:30:54.817Z,99443.66
2019-05-18T21:33:23.484Z,99443.80
2019-05-18T21:35:52.150Z,99440.77
2019-05-18T21:38:20.836Z,99444.24
2019-05-18T21:40:49.515Z,99443.66
2019-05-18T21:43:18.197Z,99451.70
2019-05-18T21:45:46.894Z,99450.42
2019-05-18T21:48:15.589Z,99454.25
2019-05-18T21:50:44.234Z,99457.43
2019-05-18T21:53:12.925Z,99449.59
2019-05-18T21:55:41.664Z,99444.89
2019-05-18T21:58:12.273Z,99444.50
2019-05-18T22:00:40.993Z,99448.05
2019-05-18T22:03:09.681Z,99444.16
2019-05-18T22:05:38.382Z,99441.64
2019-05-18T22:08:07.050Z,99443.77
2019-05-18T22:10:35.734Z,99447.94
2019-05-18T22:13:04.476Z,99439.25
2019-05-18T22:15:33.164Z,99442.63
2019-05-18T22:18:04.907Z,99441.20
2019-05-18T22:20:35.332Z,99444.83
2019-05-18T22:23:04.683Z,99452.41
2019-05-18T22:25:33.648Z,99449.52
2019-05-18T22:28:02.419Z,99445.27
2019-05-18T22:30:31.190Z,99446.20
2019-05-18T22:32:59.848Z,99447.91
2019-05-18T22:35:28.513Z,99448.14
2019-05-18T22:37:57.202Z,99458.89
2019-05-18T22:40:25.901Z,99459.00
2019-05-18T22:42:54.574Z,99461.84
2019-05-18T22:45:23.259Z,99458.47
2019-05-18T22:47:51.965Z,99452.16
2019-05-18T22:50:20.979Z,99453.28
2019-05-18T22:52:49.665Z,99446.95
2019-05-18T22:55:18.501Z,99438.07
2019-05-18T22:57:47.206Z,99441.81
2019-05-18T23:00:16.115Z,99443.16
2019-05-18T23:02:44.795Z,99443.77
2019-05-18T23:05:13.526Z,99444.44
2019-05-18T23:07:42.214Z,99443.86
2019-05-18T23:10:11.358Z,99451.84
2019-05-18T23:12:40.037Z,99442.41
2019-05-18T23:15:08.949Z,99438.63
2019-05-18T23:17:37.636Z,99444.07
2019-05-18T23:20:07.410Z,99436.97
2019-05-18T23:22:36.104Z,99438.82
2019-05-18T23:25:05.301Z,99432.32
2019-05-18T23:27:34.003Z,99434.23
2019-05-18T23:30:02.741Z,99434.23
2019-05-18T23:32:31.432Z,99433.40
2019-05-18T23:35:00.086Z,99436.11
2019-05-18T23:37:28.796Z,99430.59
2019-05-18T23:39:57.450Z,99436.74
2019-05-18T23:42:26.135Z,99427.61
2019-05-18T23:44:54.822Z,99432.44
2019-05-18T23:47:23.566Z,99430.28
2019-05-18T23:49:52.256Z,99429.32
2019-05-18T23:52:20.947Z,99428.48
2019-05-18T23:54:49.625Z,99436.00
2019-05-18T23:57:18.292Z,99434.61
2019-05-18T23:59:46.975Z,99437.53
